sensor_id;sensor_type;location;lat;lon;timestamp;pressure;altitude;pressure_sealevel;temperature
64394;BMP280;50712;49.506;10.400;2022-07-10T00:00:22;98665.34;;;21.51
64394;BMP280;50712;49.506;10.400;2022-07-10T00:00:52;98663.81;;;21.50
64394;BMP280;50712;49.506;10.400;2022-07-10T00:01:23;98665.06;;;21.49
64394;BMP280;50712;49.506;10.400;2022-07-10T00:01:54;98669.84;;;21.48
64394;BMP280;50712;49.506;10.400;2022-07-10T00:02:24;98670.59;;;21.49
64394;BMP280;50712;49.506;10.400;2022-07-10T00:02:54;98669.84;;;21.48
64394;BMP280;50712;49.506;10.400;2022-07-10T00:03:25;98664.81;;;21.47
64394;BMP280;50712;49.506;10.400;2022-07-10T00:03:55;98669.09;;;21.48
64394;BMP280;50712;49.506;10.400;2022-07-10T00:04:25;98662.06;;;21.47
64394;BMP280;50712;49.506;10.400;2022-07-10T00:04:56;98668.84;;;21.46
64394;BMP280;50712;49.506;10.400;2022-07-10T00:05:26;98660.53;;;21.46
64394;BMP280;50712;49.506;10.400;2022-07-10T00:05:57;98666.06;;;21.46
64394;BMP280;50712;49.506;10.400;2022-07-10T00:06:28;98664.56;;;21.45
64394;BMP280;50712;49.506;10.400;2022-07-10T00:06:58;98658.25;;;21.44
64394;BMP280;50712;49.506;10.400;2022-07-10T00:07:28;98663.81;;;21.44
64394;BMP280;50712;49.506;10.400;2022-07-10T00:07:59;98654.72;;;21.44
64394;BMP280;50712;49.506;10.400;2022-07-10T00:08:30;98656.00;;;21.43
64394;BMP280;50712;49.506;10.400;2022-07-10T00:09:00;98664.31;;;21.43
64394;BMP280;50712;49.506;10.400;2022-07-10T00:09:31;98660.03;;;21.42
64394;BMP280;50712;49.506;10.400;2022-07-10T00:10:02;98656.50;;;21.41
64394;BMP280;50712;49.506;10.400;2022-07-10T00:10:34;98664.06;;;21.41
64394;BMP280;50712;49.506;10.400;2022-07-10T00:11:05;98669.63;;;21.41
64394;BMP280;50712;49.506;10.400;2022-07-10T00:11:37;98656.25;;;21.39
64394;BMP280;50712;49.506;10.400;2022-07-10T00:12:07;98657.53;;;21.38
64394;BMP280;50712;49.506;10.400;2022-07-10T00:12:37;98657.53;;;21.38
64394;BMP280;50712;49.506;10.400;2022-07-10T00:13:08;98662.31;;;21.38
64394;BMP280;50712;49.506;10.400;2022-07-10T00:13:38;98658.78;;;21.37
64394;BMP280;50712;49.506;10.400;2022-07-10T00:14:08;98656.00;;;21.37
64394;BMP280;50712;49.506;10.400;2022-07-10T00:14:39;98654.75;;;21.38
64394;BMP280;50712;49.506;10.400;2022-07-10T00:15:10;98658.78;;;21.37
64394;BMP280;50712;49.506;10.400;2022-07-10T00:15:41;98659.53;;;21.38
64394;BMP280;50712;49.506;10.400;2022-07-10T00:16:11;98653.22;;;21.37
64394;BMP280;50712;49.506;10.400;2022-07-10T00:16:41;98647.94;;;21.39
64394;BMP280;50712;49.506;10.400;2022-07-10T00:17:12;98657.00;;;21.40
64394;BMP280;50712;49.506;10.400;2022-07-10T00:17:42;98654.97;;;21.40
64394;BMP280;50712;49.506;10.400;2022-07-10T00:18:13;98655.75;;;21.41
64394;BMP280;50712;49.506;10.400;2022-07-10T00:18:44;98654.22;;;21.40
64394;BMP280;50712;49.506;10.400;2022-07-10T00:19:15;98651.44;;;21.40
64394;BMP280;50712;49.506;10.400;2022-07-10T00:19:45;98659.03;;;21.39
64394;BMP280;50712;49.506;10.400;2022-07-10T00:20:15;98657.00;;;21.40
64394;BMP280;50712;49.506;10.400;2022-07-10T00:20:46;98650.72;;;21.39
64394;BMP280;50712;49.506;10.400;2022-07-10T00:21:16;98661.81;;;21.39
64394;BMP280;50712;49.506;10.400;2022-07-10T00:21:47;98660.31;;;21.38
64394;BMP280;50712;49.506;10.400;2022-07-10T00:22:17;98656.00;;;21.37
64394;BMP280;50712;49.506;10.400;2022-07-10T00:22:48;98657.53;;;21.38
64394;BMP280;50712;49.506;10.400;2022-07-10T00:23:18;98655.25;;;21.37
64394;BMP280;50712;49.506;10.400;2022-07-10T00:23:48;98659.53;;;21.38
64394;BMP280;50712;49.506;10.400;2022-07-10T00:24:19;98657.53;;;21.38
64394;BMP280;50712;49.506;10.400;2022-07-10T00:24:49;98653.22;;;21.37
64394;BMP280;50712;49.506;10.400;2022-07-10T00:25:23;98650.47;;;21.37
64394;BMP280;50712;49.506;10.400;2022-07-10T00:25:53;98648.94;;;21.36
64394;BMP280;50712;49.506;10.400;2022-07-10T00:26:24;98645.41;;;21.36
64394;BMP280;50712;49.506;10.400;2022-07-10T00:26:54;98650.94;;;21.36
64394;BMP280;50712;49.506;10.400;2022-07-10T00:27:25;98647.44;;;21.35
64394;BMP280;50712;49.506;10.400;2022-07-10T00:27:55;98652.97;;;21.35
64394;BMP280;50712;49.506;10.400;2022-07-10T00:28:25;98655.75;;;21.35
64394;BMP280;50712;49.506;10.400;2022-07-10T00:28:56;98655.25;;;21.37
64394;BMP280;50712;49.506;10.400;2022-07-10T00:29:26;98639.84;;;21.36
64394;BMP280;50712;49.506;10.400;2022-07-10T00:29:57;98655.25;;;21.37
64394;BMP280;50712;49.506;10.400;2022-07-10T00:30:27;98648.94;;;21.36
64394;BMP280;50712;49.506;10.400;2022-07-10T00:30:58;98654.00;;;21.38
64394;BMP280;50712;49.506;10.400;2022-07-10T00:31:28;98650.47;;;21.37
64394;BMP280;50712;49.506;10.400;2022-07-10T00:31:58;98654.00;;;21.38
64394;BMP280;50712;49.506;10.400;2022-07-10T00:32:29;98656.78;;;21.38
64394;BMP280;50712;49.506;10.400;2022-07-10T00:32:59;98647.69;;;21.37
64394;BMP280;50712;49.506;10.400;2022-07-10T00:33:29;98659.53;;;21.38
64394;BMP280;50712;49.506;10.400;2022-07-10T00:34:02;98656.00;;;21.37
64394;BMP280;50712;49.506;10.400;2022-07-10T00:34:32;98660.03;;;21.36
64394;BMP280;50712;49.506;10.400;2022-07-10T00:35:03;98655.75;;;21.35
64394;BMP280;50712;49.506;10.400;2022-07-10T00:35:34;98655.50;;;21.33
64394;BMP280;50712;49.506;10.400;2022-07-10T00:36:05;98661.56;;;21.32
64394;BMP280;50712;49.506;10.400;2022-07-10T00:36:36;98661.31;;;21.30
64394;BMP280;50712;49.506;10.400;2022-07-10T00:37:06;98654.25;;;21.29
64394;BMP280;50712;49.506;10.400;2022-07-10T00:37:37;98662.31;;;21.27
64394;BMP280;50712;49.506;10.400;2022-07-10T00:38:07;98653.75;;;21.25
64394;BMP280;50712;49.506;10.400;2022-07-10T00:38:38;98660.53;;;21.24
64394;BMP280;50712;49.506;10.400;2022-07-10T00:39:08;98661.06;;;21.22
64394;BMP280;50712;49.506;10.400;2022-07-10T00:39:38;98653.25;;;21.21
64394;BMP280;50712;49.506;10.400;2022-07-10T00:40:09;98658.78;;;21.21
64394;BMP280;50712;49.506;10.400;2022-07-10T00:40:39;98651.00;;;21.19
64394;BMP280;50712;49.506;10.400;2022-07-10T00:41:10;98659.31;;;21.19
64394;BMP280;50712;49.506;10.400;2022-07-10T00:41:40;98661.34;;;21.19
64394;BMP280;50712;49.506;10.400;2022-07-10T00:42:11;98657.03;;;21.18
64394;BMP280;50712;49.506;10.400;2022-07-10T00:42:43;98659.03;;;21.17
64394;BMP280;50712;49.506;10.400;2022-07-10T00:43:14;98655.50;;;21.17
64394;BMP280;50712;49.506;10.400;2022-07-10T00:43:51;98655.50;;;21.17
64394;BMP280;50712;49.506;10.400;2022-07-10T00:44:23;98656.78;;;21.16
64394;BMP280;50712;49.506;10.400;2022-07-10T00:44:54;98660.31;;;21.16
64394;BMP280;50712;49.506;10.400;2022-07-10T00:45:24;98666.38;;;21.15
64394;BMP280;50712;49.506;10.400;2022-07-10T00:45:54;98662.81;;;21.14
64394;BMP280;50712;49.506;10.400;2022-07-10T00:46:25;98659.81;;;21.12
64394;BMP280;50712;49.506;10.400;2022-07-10T00:46:57;98665.84;;;21.11
64394;BMP280;50712;49.506;10.400;2022-07-10T00:47:27;98668.63;;;21.11
64394;BMP280;50712;49.506;10.400;2022-07-10T00:47:57;98666.38;;;21.09
64394;BMP280;50712;49.506;10.400;2022-07-10T00:48:28;98664.84;;;21.08
64394;BMP280;50712;49.506;10.400;2022-07-10T00:48:58;98666.09;;;21.07
64394;BMP280;50712;49.506;10.400;2022-07-10T00:49:29;98666.84;;;21.08
64394;BMP280;50712;49.506;10.400;2022-07-10T00:49:59;98669.63;;;21.08
64394;BMP280;50712;49.506;10.400;2022-07-10T00:50:29;98668.63;;;21.05
64394;BMP280;50712;49.506;10.400;2022-07-10T00:51:00;98675.69;;;21.06
64394;BMP280;50712;49.506;10.400;2022-07-10T00:51:30;98671.41;;;21.05
64394;BMP280;50712;49.506;10.400;2022-07-10T00:52:06;98671.91;;;21.04
64394;BMP280;50712;49.506;10.400;2022-07-10T00:52:37;98666.88;;;21.02
64394;BMP280;50712;49.506;10.400;2022-07-10T00:53:08;98668.88;;;21.02
64394;BMP280;50712;49.506;10.400;2022-07-10T00:53:39;98664.09;;;21.02
64394;BMP280;50712;49.506;10.400;2022-07-10T00:54:10;98668.09;;;21.01
64394;BMP280;50712;49.506;10.400;2022-07-10T00:54:44;98664.84;;;21.03
64394;BMP280;50712;49.506;10.400;2022-07-10T00:55:16;98663.34;;;21.02
64394;BMP280;50712;49.506;10.400;2022-07-10T00:55:46;98662.84;;;21.03
64394;BMP280;50712;49.506;10.400;2022-07-10T00:56:18;98665.63;;;21.03
64394;BMP280;50712;49.506;10.400;2022-07-10T00:56:51;98664.84;;;21.03
64394;BMP280;50712;49.506;10.400;2022-07-10T00:57:21;98668.41;;;21.03
64394;BMP280;50712;49.506;10.400;2022-07-10T00:57:52;98665.34;;;21.01
64394;BMP280;50712;49.506;10.400;2022-07-10T00:58:23;98667.34;;;21.01
64394;BMP280;50712;49.506;10.400;2022-07-10T00:58:53;98669.38;;;21.00
64394;BMP280;50712;49.506;10.400;2022-07-10T00:59:25;98668.63;;;21.00
64394;BMP280;50712;49.506;10.400;2022-07-10T00:59:55;98669.38;;;21.00
64394;BMP280;50712;49.506;10.400;2022-07-10T01:00:26;98670.66;;;20.99
64394;BMP280;50712;49.506;10.400;2022-07-10T01:00:57;98673.44;;;20.99
64394;BMP280;50712;49.506;10.400;2022-07-10T01:01:28;98667.13;;;20.99
64394;BMP280;50712;49.506;10.400;2022-07-10T01:01:58;98673.44;;;20.99
64394;BMP280;50712;49.506;10.400;2022-07-10T01:02:30;98665.59;;;20.98
64394;BMP280;50712;49.506;10.400;2022-07-10T01:03:00;98667.13;;;20.99
64394;BMP280;50712;49.506;10.400;2022-07-10T01:03:31;98673.44;;;20.99
64394;BMP280;50712;49.506;10.400;2022-07-10T01:04:01;98666.34;;;20.98
64394;BMP280;50712;49.506;10.400;2022-07-10T01:04:32;98666.34;;;20.98
64394;BMP280;50712;49.506;10.400;2022-07-10T01:05:03;98666.09;;;20.96
64394;BMP280;50712;49.506;10.400;2022-07-10T01:05:34;98668.38;;;20.98
64394;BMP280;50712;49.506;10.400;2022-07-10T01:06:04;98663.59;;;20.98
64394;BMP280;50712;49.506;10.400;2022-07-10T01:06:35;98669.13;;;20.98
64394;BMP280;50712;49.506;10.400;2022-07-10T01:07:06;98667.88;;;20.99
64394;BMP280;50712;49.506;10.400;2022-07-10T01:07:37;98661.56;;;20.99
64394;BMP280;50712;49.506;10.400;2022-07-10T01:08:07;98665.13;;;20.99
64394;BMP280;50712;49.506;10.400;2022-07-10T01:08:37;98665.84;;;21.00
64394;BMP280;50712;49.506;10.400;2022-07-10T01:09:08;98664.34;;;20.99
64394;BMP280;50712;49.506;10.400;2022-07-10T01:09:39;98662.09;;;20.97
64394;BMP280;50712;49.506;10.400;2022-07-10T01:10:09;98666.88;;;20.97
64394;BMP280;50712;49.506;10.400;2022-07-10T01:10:40;98664.09;;;20.97
64394;BMP280;50712;49.506;10.400;2022-07-10T01:11:10;98662.56;;;20.96
64394;BMP280;50712;49.506;10.400;2022-07-10T01:11:41;98666.09;;;20.96
64394;BMP280;50712;49.506;10.400;2022-07-10T01:12:11;98667.38;;;20.95
64394;BMP280;50712;49.506;10.400;2022-07-10T01:12:42;98669.13;;;20.93
64394;BMP280;50712;49.506;10.400;2022-07-10T01:13:13;98662.81;;;20.92
64394;BMP280;50712;49.506;10.400;2022-07-10T01:13:44;98665.34;;;20.90
64394;BMP280;50712;49.506;10.400;2022-07-10T01:14:15;98668.59;;;20.89
64394;BMP280;50712;49.506;10.400;2022-07-10T01:14:46;98665.59;;;20.87
64394;BMP280;50712;49.506;10.400;2022-07-10T01:15:16;98663.31;;;20.85
64394;BMP280;50712;49.506;10.400;2022-07-10T01:15:46;98665.09;;;20.83
64394;BMP280;50712;49.506;10.400;2022-07-10T01:16:18;98664.06;;;20.80
64394;BMP280;50712;49.506;10.400;2022-07-10T01:16:48;98669.84;;;20.77
64394;BMP280;50712;49.506;10.400;2022-07-10T01:17:19;98660.03;;;20.75
64394;BMP280;50712;49.506;10.400;2022-07-10T01:17:49;98662.06;;;20.75
64394;BMP280;50712;49.506;10.400;2022-07-10T01:18:23;98666.56;;;20.72
64394;BMP280;50712;49.506;10.400;2022-07-10T01:18:55;98659.53;;;20.71
64394;BMP280;50712;49.506;10.400;2022-07-10T01:19:26;98663.56;;;20.70
64394;BMP280;50712;49.506;10.400;2022-07-10T01:19:57;98656.25;;;20.67
64394;BMP280;50712;49.506;10.400;2022-07-10T01:20:31;98663.06;;;20.66
64394;BMP280;50712;49.506;10.400;2022-07-10T01:21:04;98665.06;;;20.66
64394;BMP280;50712;49.506;10.400;2022-07-10T01:21:36;98656.75;;;20.66
64394;BMP280;50712;49.506;10.400;2022-07-10T01:22:07;98659.53;;;20.66
64394;BMP280;50712;49.506;10.400;2022-07-10T01:22:37;98663.78;;;20.67
64394;BMP280;50712;49.506;10.400;2022-07-10T01:23:08;98658.25;;;20.67
64394;BMP280;50712;49.506;10.400;2022-07-10T01:23:38;98659.78;;;20.68
64394;BMP280;50712;49.506;10.400;2022-07-10T01:24:09;98660.03;;;20.70
64394;BMP280;50712;49.506;10.400;2022-07-10T01:24:41;98666.34;;;20.70
64394;BMP280;50712;49.506;10.400;2022-07-10T01:25:11;98663.03;;;20.72
64394;BMP280;50712;49.506;10.400;2022-07-10T01:25:41;98661.03;;;20.72
64394;BMP280;50712;49.506;10.400;2022-07-10T01:26:12;98662.56;;;20.73
64394;BMP280;50712;49.506;10.400;2022-07-10T01:26:42;98664.09;;;20.75
64394;BMP280;50712;49.506;10.400;2022-07-10T01:27:13;98662.78;;;20.75
64394;BMP280;50712;49.506;10.400;2022-07-10T01:27:43;98658.00;;;20.76
64394;BMP280;50712;49.506;10.400;2022-07-10T01:28:14;98661.56;;;20.77
64394;BMP280;50712;49.506;10.400;2022-07-10T01:28:47;98659.53;;;20.77
64394;BMP280;50712;49.506;10.400;2022-07-10T01:29:18;98661.81;;;20.79
64394;BMP280;50712;49.506;10.400;2022-07-10T01:29:51;98663.31;;;20.80
64394;BMP280;50712;49.506;10.400;2022-07-10T01:30:24;98663.84;;;20.78
64394;BMP280;50712;49.506;10.400;2022-07-10T01:30:55;98657.75;;;20.80
64394;BMP280;50712;49.506;10.400;2022-07-10T01:31:26;98657.75;;;20.80
64394;BMP280;50712;49.506;10.400;2022-07-10T01:31:56;98659.78;;;20.79
64394;BMP280;50712;49.506;10.400;2022-07-10T01:32:41;98659.28;;;20.81
64394;BMP280;50712;49.506;10.400;2022-07-10T01:33:12;98660.53;;;20.80
64394;BMP280;50712;49.506;10.400;2022-07-10T01:33:42;98662.81;;;20.81
64394;BMP280;50712;49.506;10.400;2022-07-10T01:34:14;98659.28;;;20.81
64394;BMP280;50712;49.506;10.400;2022-07-10T01:34:44;98659.28;;;20.81
64394;BMP280;50712;49.506;10.400;2022-07-10T01:35:17;98660.78;;;20.82
64394;BMP280;50712;49.506;10.400;2022-07-10T01:35:47;98660.06;;;20.81
64394;BMP280;50712;49.506;10.400;2022-07-10T01:36:18;98665.59;;;20.81
64394;BMP280;50712;49.506;10.400;2022-07-10T01:36:49;98663.56;;;20.82
64394;BMP280;50712;49.506;10.400;2022-07-10T01:37:19;98660.78;;;20.82
64394;BMP280;50712;49.506;10.400;2022-07-10T01:37:50;98667.09;;;20.82
64394;BMP280;50712;49.506;10.400;2022-07-10T01:38:20;98663.06;;;20.83
64394;BMP280;50712;49.506;10.400;2022-07-10T01:38:51;98660.28;;;20.83
64394;BMP280;50712;49.506;10.400;2022-07-10T01:39:22;98663.31;;;20.85
64394;BMP280;50712;49.506;10.400;2022-07-10T01:39:53;98661.81;;;20.84
64394;BMP280;50712;49.506;10.400;2022-07-10T01:40:23;98661.31;;;20.86
64394;BMP280;50712;49.506;10.400;2022-07-10T01:40:54;98661.81;;;20.84
64394;BMP280;50712;49.506;10.400;2022-07-10T01:41:25;98666.09;;;20.85
64394;BMP280;50712;49.506;10.400;2022-07-10T01:41:56;98664.59;;;20.84
64394;BMP280;50712;49.506;10.400;2022-07-10T01:42:26;98666.59;;;20.84
64394;BMP280;50712;49.506;10.400;2022-07-10T01:42:57;98661.06;;;20.84
64394;BMP280;50712;49.506;10.400;2022-07-10T01:43:28;98663.81;;;20.84
64394;BMP280;50712;49.506;10.400;2022-07-10T01:43:58;98664.31;;;20.82
64394;BMP280;50712;49.506;10.400;2022-07-10T01:44:29;98662.31;;;20.83
64394;BMP280;50712;49.506;10.400;2022-07-10T01:44:59;98668.38;;;20.81
64394;BMP280;50712;49.506;10.400;2022-07-10T01:45:30;98662.81;;;20.81
64394;BMP280;50712;49.506;10.400;2022-07-10T01:46:00;98666.06;;;20.80
64394;BMP280;50712;49.506;10.400;2022-07-10T01:46:31;98661.31;;;20.80
64394;BMP280;50712;49.506;10.400;2022-07-10T01:47:01;98670.84;;;20.79
64394;BMP280;50712;49.506;10.400;2022-07-10T01:47:32;98664.56;;;20.79
64394;BMP280;50712;49.506;10.400;2022-07-10T01:48:02;98665.31;;;20.79
64394;BMP280;50712;49.506;10.400;2022-07-10T01:48:33;98670.84;;;20.79
64394;BMP280;50712;49.506;10.400;2022-07-10T01:49:03;98671.63;;;20.80
64394;BMP280;50712;49.506;10.400;2022-07-10T01:49:34;98666.06;;;20.80
64394;BMP280;50712;49.506;10.400;2022-07-10T01:50:04;98668.09;;;20.79
64394;BMP280;50712;49.506;10.400;2022-07-10T01:50:35;98666.59;;;20.78
64394;BMP280;50712;49.506;10.400;2022-07-10T01:51:06;98669.38;;;20.78
64394;BMP280;50712;49.506;10.400;2022-07-10T01:51:37;98666.59;;;20.78
64394;BMP280;50712;49.506;10.400;2022-07-10T01:52:07;98673.41;;;20.77
64394;BMP280;50712;49.506;10.400;2022-07-10T01:52:39;98674.16;;;20.78
64394;BMP280;50712;49.506;10.400;2022-07-10T01:53:10;98667.09;;;20.77
64394;BMP280;50712;49.506;10.400;2022-07-10T01:53:40;98662.31;;;20.77
64394;BMP280;50712;49.506;10.400;2022-07-10T01:54:11;98666.31;;;20.76
64394;BMP280;50712;49.506;10.400;2022-07-10T01:54:41;98669.84;;;20.77
64394;BMP280;50712;49.506;10.400;2022-07-10T01:55:11;98669.09;;;20.76
64394;BMP280;50712;49.506;10.400;2022-07-10T01:55:42;98669.09;;;20.76
64394;BMP280;50712;49.506;10.400;2022-07-10T01:56:13;98666.31;;;20.76
64394;BMP280;50712;49.506;10.400;2022-07-10T01:56:44;98665.56;;;20.75
64394;BMP280;50712;49.506;10.400;2022-07-10T01:57:14;98657.78;;;20.74
64394;BMP280;50712;49.506;10.400;2022-07-10T01:57:45;98678.69;;;20.75
64394;BMP280;50712;49.506;10.400;2022-07-10T01:58:15;98667.59;;;20.75
64394;BMP280;50712;49.506;10.400;2022-07-10T01:58:46;98670.09;;;20.73
64394;BMP280;50712;49.506;10.400;2022-07-10T01:59:16;98670.88;;;20.73
64394;BMP280;50712;49.506;10.400;2022-07-10T01:59:47;98673.63;;;20.73
64394;BMP280;50712;49.506;10.400;2022-07-10T02:00:17;98673.63;;;20.73
64394;BMP280;50712;49.506;10.400;2022-07-10T02:00:48;98673.63;;;20.73
64394;BMP280;50712;49.506;10.400;2022-07-10T02:01:18;98673.63;;;20.73
64394;BMP280;50712;49.506;10.400;2022-07-10T02:01:48;98670.09;;;20.73
64394;BMP280;50712;49.506;10.400;2022-07-10T02:02:19;98672.88;;;20.73
64394;BMP280;50712;49.506;10.400;2022-07-10T02:02:49;98678.41;;;20.73
64394;BMP280;50712;49.506;10.400;2022-07-10T02:03:38;98671.34;;;20.72
64394;BMP280;50712;49.506;10.400;2022-07-10T02:04:27;98673.38;;;20.71
64394;BMP280;50712;49.506;10.400;2022-07-10T02:05:13;98676.16;;;20.71
64394;BMP280;50712;49.506;10.400;2022-07-10T02:05:44;98677.41;;;20.70
64394;BMP280;50712;49.506;10.400;2022-07-10T02:06:14;98681.69;;;20.71
64394;BMP280;50712;49.506;10.400;2022-07-10T02:06:45;98678.91;;;20.71
64394;BMP280;50712;49.506;10.400;2022-07-10T02:07:16;98676.16;;;20.71
64394;BMP280;50712;49.506;10.400;2022-07-10T02:07:48;98680.19;;;20.70
64394;BMP280;50712;49.506;10.400;2022-07-10T02:08:18;98675.38;;;20.71
64394;BMP280;50712;49.506;10.400;2022-07-10T02:08:49;98676.66;;;20.70
64394;BMP280;50712;49.506;10.400;2022-07-10T02:09:19;98679.44;;;20.70
64394;BMP280;50712;49.506;10.400;2022-07-10T02:09:50;98671.63;;;20.68
64394;BMP280;50712;49.506;10.400;2022-07-10T02:10:20;98670.09;;;20.67
64394;BMP280;50712;49.506;10.400;2022-07-10T02:10:50;98678.16;;;20.65
64394;BMP280;50712;49.506;10.400;2022-07-10T02:11:21;98680.94;;;20.65
64394;BMP280;50712;49.506;10.400;2022-07-10T02:11:51;98676.41;;;20.62
64394;BMP280;50712;49.506;10.400;2022-07-10T02:12:21;98672.59;;;20.60
64394;BMP280;50712;49.506;10.400;2022-07-10T02:12:52;98677.38;;;20.59
64394;BMP280;50712;49.506;10.400;2022-07-10T02:13:22;98671.59;;;20.57
64394;BMP280;50712;49.506;10.400;2022-07-10T02:13:54;98679.13;;;20.57
64394;BMP280;50712;49.506;10.400;2022-07-10T02:14:25;98674.09;;;20.55
64394;BMP280;50712;49.506;10.400;2022-07-10T02:14:55;98679.66;;;20.55
64394;BMP280;50712;49.506;10.400;2022-07-10T02:15:29;98680.16;;;20.54
64394;BMP280;50712;49.506;10.400;2022-07-10T02:15:59;98682.16;;;20.53
64394;BMP280;50712;49.506;10.400;2022-07-10T02:16:30;98675.88;;;20.53
64394;BMP280;50712;49.506;10.400;2022-07-10T02:17:00;98683.41;;;20.52
64394;BMP280;50712;49.506;10.400;2022-07-10T02:17:31;98682.66;;;20.52
64394;BMP280;50712;49.506;10.400;2022-07-10T02:18:01;98679.88;;;20.52
64394;BMP280;50712;49.506;10.400;2022-07-10T02:18:32;98687.44;;;20.51
64394;BMP280;50712;49.506;10.400;2022-07-10T02:19:02;98682.66;;;20.52
64394;BMP280;50712;49.506;10.400;2022-07-10T02:19:33;98685.44;;;20.52
64394;BMP280;50712;49.506;10.400;2022-07-10T02:20:04;98690.97;;;20.52
64394;BMP280;50712;49.506;10.400;2022-07-10T02:20:35;98683.91;;;20.51
64394;BMP280;50712;49.506;10.400;2022-07-10T02:21:06;98690.19;;;20.51
64394;BMP280;50712;49.506;10.400;2022-07-10T02:21:36;98689.44;;;20.51
64394;BMP280;50712;49.506;10.400;2022-07-10T02:22:07;98681.91;;;20.51
64394;BMP280;50712;49.506;10.400;2022-07-10T02:22:37;98685.91;;;20.50
64394;BMP280;50712;49.506;10.400;2022-07-10T02:23:08;98685.91;;;20.50
64394;BMP280;50712;49.506;10.400;2022-07-10T02:23:38;98687.94;;;20.50
64394;BMP280;50712;49.506;10.400;2022-07-10T02:24:10;98680.91;;;20.49
64394;BMP280;50712;49.506;10.400;2022-07-10T02:24:41;98683.66;;;20.49
64394;BMP280;50712;49.506;10.400;2022-07-10T02:25:11;98690.44;;;20.48
64394;BMP280;50712;49.506;10.400;2022-07-10T02:25:41;98684.13;;;20.47
64394;BMP280;50712;49.506;10.400;2022-07-10T02:26:12;98686.16;;;20.47
64394;BMP280;50712;49.506;10.400;2022-07-10T02:26:42;98690.22;;;20.46
64394;BMP280;50712;49.506;10.400;2022-07-10T02:27:13;98689.44;;;20.45
64394;BMP280;50712;49.506;10.400;2022-07-10T02:27:43;98689.19;;;20.43
64394;BMP280;50712;49.506;10.400;2022-07-10T02:28:13;98683.66;;;20.43
64394;BMP280;50712;49.506;10.400;2022-07-10T02:28:44;98689.19;;;20.43
64394;BMP280;50712;49.506;10.400;2022-07-10T02:29:14;98689.69;;;20.42
64394;BMP280;50712;49.506;10.400;2022-07-10T02:29:45;98685.38;;;20.41
64394;BMP280;50712;49.506;10.400;2022-07-10T02:30:15;98684.63;;;20.40
64394;BMP280;50712;49.506;10.400;2022-07-10T02:30:45;98692.19;;;20.40
64394;BMP280;50712;49.506;10.400;2022-07-10T02:31:16;98679.59;;;20.39
64394;BMP280;50712;49.506;10.400;2022-07-10T02:31:46;98684.63;;;20.40
64394;BMP280;50712;49.506;10.400;2022-07-10T02:32:17;98685.13;;;20.39
64394;BMP280;50712;49.506;10.400;2022-07-10T02:32:47;98684.34;;;20.38
64394;BMP280;50712;49.506;10.400;2022-07-10T02:33:17;98686.38;;;20.38
64394;BMP280;50712;49.506;10.400;2022-07-10T02:33:48;98682.88;;;20.37
64394;BMP280;50712;49.506;10.400;2022-07-10T02:34:18;98692.66;;;20.38
64394;BMP280;50712;49.506;10.400;2022-07-10T02:34:48;98682.88;;;20.37
64394;BMP280;50712;49.506;10.400;2022-07-10T02:35:19;98685.63;;;20.37
64394;BMP280;50712;49.506;10.400;2022-07-10T02:35:49;98682.13;;;20.37
64394;BMP280;50712;49.506;10.400;2022-07-10T02:36:20;98682.88;;;20.37
64394;BMP280;50712;49.506;10.400;2022-07-10T02:36:50;98679.59;;;20.39
64394;BMP280;50712;49.506;10.400;2022-07-10T02:37:20;98680.09;;;20.37
64394;BMP280;50712;49.506;10.400;2022-07-10T02:37:51;98687.91;;;20.39
64394;BMP280;50712;49.506;10.400;2022-07-10T02:38:21;98680.09;;;20.37
64394;BMP280;50712;49.506;10.400;2022-07-10T02:38:51;98676.59;;;20.37
64394;BMP280;50712;49.506;10.400;2022-07-10T02:39:22;98682.13;;;20.37
64394;BMP280;50712;49.506;10.400;2022-07-10T02:39:53;98684.13;;;20.36
64394;BMP280;50712;49.506;10.400;2022-07-10T02:40:23;98676.28;;;20.35
64394;BMP280;50712;49.506;10.400;2022-07-10T02:40:54;98679.06;;;20.35
64394;BMP280;50712;49.506;10.400;2022-07-10T02:41:24;98676.84;;;20.33
64394;BMP280;50712;49.506;10.400;2022-07-10T02:41:55;98680.06;;;20.32
64394;BMP280;50712;49.506;10.400;2022-07-10T02:42:25;98671.78;;;20.32
64394;BMP280;50712;49.506;10.400;2022-07-10T02:42:56;98675.78;;;20.31
64394;BMP280;50712;49.506;10.400;2022-07-10T02:43:26;98674.28;;;20.30
64394;BMP280;50712;49.506;10.400;2022-07-10T02:43:56;98679.03;;;20.29
64394;BMP280;50712;49.506;10.400;2022-07-10T02:44:27;98681.06;;;20.29
64394;BMP280;50712;49.506;10.400;2022-07-10T02:44:59;98676.78;;;20.28
64394;BMP280;50712;49.506;10.400;2022-07-10T02:45:29;98682.31;;;20.28
64394;BMP280;50712;49.506;10.400;2022-07-10T02:46:00;98683.09;;;20.28
64394;BMP280;50712;49.506;10.400;2022-07-10T02:46:31;98680.81;;;20.27
64394;BMP280;50712;49.506;10.400;2022-07-10T02:47:02;98678.03;;;20.27
64394;BMP280;50712;49.506;10.400;2022-07-10T02:47:33;98682.06;;;20.26
64394;BMP280;50712;49.506;10.400;2022-07-10T02:48:03;98674.50;;;20.26
64394;BMP280;50712;49.506;10.400;2022-07-10T02:48:34;98686.09;;;20.25
64394;BMP280;50712;49.506;10.400;2022-07-10T02:49:04;98681.28;;;20.25
64394;BMP280;50712;49.506;10.400;2022-07-10T02:49:35;98681.28;;;20.25
64394;BMP280;50712;49.506;10.400;2022-07-10T02:50:05;98682.06;;;20.26
64394;BMP280;50712;49.506;10.400;2022-07-10T02:50:36;98684.81;;;20.26
64394;BMP280;50712;49.506;10.400;2022-07-10T02:51:06;98681.81;;;20.24
64394;BMP280;50712;49.506;10.400;2022-07-10T02:51:37;98680.06;;;20.26
64394;BMP280;50712;49.506;10.400;2022-07-10T02:52:07;98684.06;;;20.25
64394;BMP280;50712;49.506;10.400;2022-07-10T02:52:38;98681.81;;;20.24
64394;BMP280;50712;49.506;10.400;2022-07-10T02:53:08;98681.81;;;20.24
64394;BMP280;50712;49.506;10.400;2022-07-10T02:53:38;98680.56;;;20.25
64394;BMP280;50712;49.506;10.400;2022-07-10T02:54:09;98679.06;;;20.24
64394;BMP280;50712;49.506;10.400;2022-07-10T02:54:39;98676.28;;;20.24
64394;BMP280;50712;49.506;10.400;2022-07-10T02:55:10;98681.06;;;20.23
64394;BMP280;50712;49.506;10.400;2022-07-10T02:55:40;98677.53;;;20.23